sensor_id;sensor_type;location;lat;lon;timestamp;P1;durP1;ratioP1;P2;durP2;ratioP2
15312;SDS011;7757;52.626;4.746;2023-06-14T00:00:46;12.00;;;3.17;;
15312;SDS011;7757;52.626;4.746;2023-06-14T00:03:13;11.63;;;3.22;;
15312;SDS011;7757;52.626;4.746;2023-06-14T00:05:43;12.27;;;3.30;;
15312;SDS011;7757;52.626;4.746;2023-06-14T00:08:09;10.85;;;3.15;;
15312;SDS011;7757;52.626;4.746;2023-06-14T00:10:38;11.93;;;3.10;;
15312;SDS011;7757;52.626;4.746;2023-06-14T00:13:06;11.38;;;3.08;;
15312;SDS011;7757;52.626;4.746;2023-06-14T00:15:32;10.15;;;3.30;;
15312;SDS011;7757;52.626;4.746;2023-06-14T00:18:01;11.93;;;3.00;;
15312;SDS011;7757;52.626;4.746;2023-06-14T00:20:31;10.35;;;3.35;;
15312;SDS011;7757;52.626;4.746;2023-06-14T00:23:01;11.80;;;3.33;;
15312;SDS011;7757;52.626;4.746;2023-06-14T00:25:27;12.10;;;3.20;;
15312;SDS011;7757;52.626;4.746;2023-06-14T00:27:54;11.32;;;3.47;;
15312;SDS011;7757;52.626;4.746;2023-06-14T00:30:19;10.48;;;3.13;;
15312;SDS011;7757;52.626;4.746;2023-06-14T00:32:45;12.98;;;3.03;;
15312;SDS011;7757;52.626;4.746;2023-06-14T00:35:11;17.88;;;3.60;;
15312;SDS011;7757;52.626;4.746;2023-06-14T00:37:37;13.18;;;3.00;;
15312;SDS011;7757;52.626;4.746;2023-06-14T00:40:03;11.70;;;2.90;;
15312;SDS011;7757;52.626;4.746;2023-06-14T00:42:30;10.35;;;2.75;;
15312;SDS011;7757;52.626;4.746;2023-06-14T00:44:55;12.77;;;3.80;;
15312;SDS011;7757;52.626;4.746;2023-06-14T00:47:21;14.65;;;3.20;;
15312;SDS011;7757;52.626;4.746;2023-06-14T00:49:53;12.63;;;3.53;;
15312;SDS011;7757;52.626;4.746;2023-06-14T00:52:20;14.18;;;3.10;;
15312;SDS011;7757;52.626;4.746;2023-06-14T00:54:45;13.50;;;3.10;;
15312;SDS011;7757;52.626;4.746;2023-06-14T00:57:12;12.00;;;3.30;;
15312;SDS011;7757;52.626;4.746;2023-06-14T00:59:40;10.95;;;3.00;;
15312;SDS011;7757;52.626;4.746;2023-06-14T01:02:09;13.25;;;3.20;;
15312;SDS011;7757;52.626;4.746;2023-06-14T01:04:34;10.73;;;2.90;;
15312;SDS011;7757;52.626;4.746;2023-06-14T01:12:21;10.73;;;2.83;;
15312;SDS011;7757;52.626;4.746;2023-06-14T01:14:54;13.35;;;3.17;;
15312;SDS011;7757;52.626;4.746;2023-06-14T01:17:22;14.00;;;2.95;;
15312;SDS011;7757;52.626;4.746;2023-06-14T01:19:48;13.23;;;3.10;;
15312;SDS011;7757;52.626;4.746;2023-06-14T01:22:14;12.93;;;2.95;;
15312;SDS011;7757;52.626;4.746;2023-06-14T01:24:39;12.18;;;2.90;;
15312;SDS011;7757;52.626;4.746;2023-06-14T01:27:13;15.65;;;3.15;;
15312;SDS011;7757;52.626;4.746;2023-06-14T01:29:40;10.75;;;2.92;;
15312;SDS011;7757;52.626;4.746;2023-06-14T01:32:10;11.48;;;2.70;;
15312;SDS011;7757;52.626;4.746;2023-06-14T01:34:36;12.45;;;3.15;;
15312;SDS011;7757;52.626;4.746;2023-06-14T01:37:01;10.38;;;2.63;;
15312;SDS011;7757;52.626;4.746;2023-06-14T01:39:29;13.00;;;3.53;;
15312;SDS011;7757;52.626;4.746;2023-06-14T01:41:55;12.15;;;2.80;;
15312;SDS011;7757;52.626;4.746;2023-06-14T01:44:25;10.95;;;2.88;;
15312;SDS011;7757;52.626;4.746;2023-06-14T01:46:52;12.50;;;3.03;;
15312;SDS011;7757;52.626;4.746;2023-06-14T01:49:18;10.88;;;2.78;;
15312;SDS011;7757;52.626;4.746;2023-06-14T01:51:45;11.90;;;2.80;;
15312;SDS011;7757;52.626;4.746;2023-06-14T01:54:10;11.85;;;2.90;;
15312;SDS011;7757;52.626;4.746;2023-06-14T01:56:36;15.38;;;2.83;;
15312;SDS011;7757;52.626;4.746;2023-06-14T01:59:01;10.38;;;2.67;;
15312;SDS011;7757;52.626;4.746;2023-06-14T02:01:26;13.13;;;3.25;;
15312;SDS011;7757;52.626;4.746;2023-06-14T02:03:52;14.85;;;3.05;;
15312;SDS011;7757;52.626;4.746;2023-06-14T02:06:18;13.15;;;3.20;;
15312;SDS011;7757;52.626;4.746;2023-06-14T02:08:44;10.77;;;2.47;;
15312;SDS011;7757;52.626;4.746;2023-06-14T02:11:09;11.98;;;2.83;;
15312;SDS011;7757;52.626;4.746;2023-06-14T02:13:35;13.55;;;2.78;;
15312;SDS011;7757;52.626;4.746;2023-06-14T02:16:00;10.40;;;2.80;;
15312;SDS011;7757;52.626;4.746;2023-06-14T02:18:26;13.98;;;2.70;;
15312;SDS011;7757;52.626;4.746;2023-06-14T02:20:52;11.82;;;2.90;;
15312;SDS011;7757;52.626;4.746;2023-06-14T02:23:17;10.82;;;2.67;;
15312;SDS011;7757;52.626;4.746;2023-06-14T02:25:43;13.50;;;2.72;;
15312;SDS011;7757;52.626;4.746;2023-06-14T02:28:10;11.93;;;3.20;;
15312;SDS011;7757;52.626;4.746;2023-06-14T02:30:38;14.85;;;2.90;;
15312;SDS011;7757;52.626;4.746;2023-06-14T02:33:04;9.27;;;2.75;;
15312;SDS011;7757;52.626;4.746;2023-06-14T02:35:29;14.70;;;2.78;;
15312;SDS011;7757;52.626;4.746;2023-06-14T02:37:55;10.32;;;2.80;;
15312;SDS011;7757;52.626;4.746;2023-06-14T02:40:23;12.65;;;2.88;;
15312;SDS011;7757;52.626;4.746;2023-06-14T02:42:49;11.98;;;3.20;;
15312;SDS011;7757;52.626;4.746;2023-06-14T02:45:17;10.35;;;2.90;;
15312;SDS011;7757;52.626;4.746;2023-06-14T02:47:43;9.18;;;2.50;;
15312;SDS011;7757;52.626;4.746;2023-06-14T02:50:08;11.63;;;2.50;;
15312;SDS011;7757;52.626;4.746;2023-06-14T02:52:34;11.18;;;2.65;;
15312;SDS011;7757;52.626;4.746;2023-06-14T02:55:02;11.15;;;2.80;;
15312;SDS011;7757;52.626;4.746;2023-06-14T02:57:28;13.35;;;2.70;;
15312;SDS011;7757;52.626;4.746;2023-06-14T02:59:53;13.13;;;3.03;;
15312;SDS011;7757;52.626;4.746;2023-06-14T03:02:18;12.40;;;2.75;;
15312;SDS011;7757;52.626;4.746;2023-06-14T03:04:44;10.55;;;2.42;;
15312;SDS011;7757;52.626;4.746;2023-06-14T03:07:11;11.73;;;2.70;;
15312;SDS011;7757;52.626;4.746;2023-06-14T03:09:40;12.10;;;2.80;;
15312;SDS011;7757;52.626;4.746;2023-06-14T03:12:05;10.55;;;2.50;;
15312;SDS011;7757;52.626;4.746;2023-06-14T03:14:37;9.32;;;2.70;;
15312;SDS011;7757;52.626;4.746;2023-06-14T03:17:03;9.93;;;2.47;;
15312;SDS011;7757;52.626;4.746;2023-06-14T03:19:29;10.52;;;2.55;;
15312;SDS011;7757;52.626;4.746;2023-06-14T03:21:55;11.15;;;3.00;;
15312;SDS011;7757;52.626;4.746;2023-06-14T03:24:24;8.30;;;2.33;;
15312;SDS011;7757;52.626;4.746;2023-06-14T03:26:52;11.25;;;2.78;;
15312;SDS011;7757;52.626;4.746;2023-06-14T03:29:18;11.55;;;2.60;;
15312;SDS011;7757;52.626;4.746;2023-06-14T03:31:56;15.52;;;2.50;;
15312;SDS011;7757;52.626;4.746;2023-06-14T03:34:23;12.40;;;2.78;;
15312;SDS011;7757;52.626;4.746;2023-06-14T03:36:49;13.77;;;2.72;;
15312;SDS011;7757;52.626;4.746;2023-06-14T03:39:14;11.27;;;2.80;;
15312;SDS011;7757;52.626;4.746;2023-06-14T03:41:40;12.65;;;2.50;;
15312;SDS011;7757;52.626;4.746;2023-06-14T03:44:14;13.07;;;2.67;;
15312;SDS011;7757;52.626;4.746;2023-06-14T03:46:41;9.80;;;2.70;;
15312;SDS011;7757;52.626;4.746;2023-06-14T03:49:06;11.27;;;2.78;;
15312;SDS011;7757;52.626;4.746;2023-06-14T03:51:32;11.85;;;2.85;;
15312;SDS011;7757;52.626;4.746;2023-06-14T03:53:59;11.02;;;2.88;;
15312;SDS011;7757;52.626;4.746;2023-06-14T03:56:25;11.77;;;2.60;;
15312;SDS011;7757;52.626;4.746;2023-06-14T03:58:51;11.07;;;2.70;;
15312;SDS011;7757;52.626;4.746;2023-06-14T04:01:17;10.23;;;2.63;;
15312;SDS011;7757;52.626;4.746;2023-06-14T04:03:45;9.98;;;2.80;;
15312;SDS011;7757;52.626;4.746;2023-06-14T04:06:11;9.95;;;2.55;;
15312;SDS011;7757;52.626;4.746;2023-06-14T04:08:36;12.25;;;2.60;;
15312;SDS011;7757;52.626;4.746;2023-06-14T04:11:04;10.27;;;2.95;;
15312;SDS011;7757;52.626;4.746;2023-06-14T04:13:30;14.98;;;2.88;;
15312;SDS011;7757;52.626;4.746;2023-06-14T04:15:56;8.75;;;2.30;;
15312;SDS011;7757;52.626;4.746;2023-06-14T04:18:22;10.82;;;2.72;;
15312;SDS011;7757;52.626;4.746;2023-06-14T04:20:47;12.07;;;2.63;;
15312;SDS011;7757;52.626;4.746;2023-06-14T04:23:13;10.23;;;2.42;;
15312;SDS011;7757;52.626;4.746;2023-06-14T04:25:43;9.98;;;2.40;;
15312;SDS011;7757;52.626;4.746;2023-06-14T04:28:12;13.50;;;2.67;;
15312;SDS011;7757;52.626;4.746;2023-06-14T04:30:43;11.02;;;2.97;;
15312;SDS011;7757;52.626;4.746;2023-06-14T04:33:09;11.07;;;2.83;;
15312;SDS011;7757;52.626;4.746;2023-06-14T04:35:36;10.15;;;2.50;;
15312;SDS011;7757;52.626;4.746;2023-06-14T04:38:05;8.77;;;2.70;;
15312;SDS011;7757;52.626;4.746;2023-06-14T04:40:34;12.57;;;3.05;;
15312;SDS011;7757;52.626;4.746;2023-06-14T04:43:01;9.93;;;2.40;;
15312;SDS011;7757;52.626;4.746;2023-06-14T04:45:29;9.13;;;2.40;;
15312;SDS011;7757;52.626;4.746;2023-06-14T04:47:58;9.52;;;2.60;;
15312;SDS011;7757;52.626;4.746;2023-06-14T04:50:24;13.48;;;2.30;;
15312;SDS011;7757;52.626;4.746;2023-06-14T04:52:50;12.48;;;2.50;;
15312;SDS011;7757;52.626;4.746;2023-06-14T04:55:16;13.48;;;2.70;;
15312;SDS011;7757;52.626;4.746;2023-06-14T04:57:44;14.20;;;2.75;;
15312;SDS011;7757;52.626;4.746;2023-06-14T05:00:10;13.05;;;2.88;;
15312;SDS011;7757;52.626;4.746;2023-06-14T05:02:36;14.23;;;2.53;;
15312;SDS011;7757;52.626;4.746;2023-06-14T05:05:02;9.75;;;2.58;;
15312;SDS011;7757;52.626;4.746;2023-06-14T05:07:31;12.20;;;2.92;;
15312;SDS011;7757;52.626;4.746;2023-06-14T05:09:58;10.30;;;2.97;;
15312;SDS011;7757;52.626;4.746;2023-06-14T05:12:24;10.70;;;2.65;;
15312;SDS011;7757;52.626;4.746;2023-06-14T05:14:49;11.95;;;2.42;;
15312;SDS011;7757;52.626;4.746;2023-06-14T05:17:27;10.82;;;2.70;;
15312;SDS011;7757;52.626;4.746;2023-06-14T05:19:53;11.40;;;2.60;;
15312;SDS011;7757;52.626;4.746;2023-06-14T05:22:20;12.70;;;2.55;;
15312;SDS011;7757;52.626;4.746;2023-06-14T05:24:46;12.43;;;2.72;;
15312;SDS011;7757;52.626;4.746;2023-06-14T05:27:13;11.93;;;2.60;;
15312;SDS011;7757;52.626;4.746;2023-06-14T05:29:41;12.15;;;2.60;;
15312;SDS011;7757;52.626;4.746;2023-06-14T05:32:07;9.73;;;2.50;;
15312;SDS011;7757;52.626;4.746;2023-06-14T05:34:36;13.20;;;3.20;;
15312;SDS011;7757;52.626;4.746;2023-06-14T05:37:01;10.02;;;2.53;;
15312;SDS011;7757;52.626;4.746;2023-06-14T05:39:28;11.18;;;2.95;;
15312;SDS011;7757;52.626;4.746;2023-06-14T05:41:54;12.27;;;2.60;;
15312;SDS011;7757;52.626;4.746;2023-06-14T05:44:26;8.57;;;2.42;;
15312;SDS011;7757;52.626;4.746;2023-06-14T05:46:51;14.18;;;2.80;;
15312;SDS011;7757;52.626;4.746;2023-06-14T05:49:17;11.32;;;2.65;;
15312;SDS011;7757;52.626;4.746;2023-06-14T05:51:42;12.88;;;3.67;;
15312;SDS011;7757;52.626;4.746;2023-06-14T05:54:08;12.80;;;2.90;;
15312;SDS011;7757;52.626;4.746;2023-06-14T05:56:33;12.05;;;3.15;;
15312;SDS011;7757;52.626;4.746;2023-06-14T05:58:58;10.18;;;2.80;;
15312;SDS011;7757;52.626;4.746;2023-06-14T06:01:24;13.38;;;2.90;;
15312;SDS011;7757;52.626;4.746;2023-06-14T06:03:50;10.05;;;2.65;;
15312;SDS011;7757;52.626;4.746;2023-06-14T06:06:15;11.13;;;2.92;;
15312;SDS011;7757;52.626;4.746;2023-06-14T06:08:41;12.23;;;3.30;;
15312;SDS011;7757;52.626;4.746;2023-06-14T06:11:07;12.55;;;2.88;;
15312;SDS011;7757;52.626;4.746;2023-06-14T06:13:33;11.57;;;2.97;;
15312;SDS011;7757;52.626;4.746;2023-06-14T06:16:00;11.90;;;3.00;;
15312;SDS011;7757;52.626;4.746;2023-06-14T06:18:25;12.77;;;2.95;;
15312;SDS011;7757;52.626;4.746;2023-06-14T06:20:50;10.60;;;2.83;;
15312;SDS011;7757;52.626;4.746;2023-06-14T06:23:16;9.98;;;2.75;;
15312;SDS011;7757;52.626;4.746;2023-06-14T06:25:42;11.00;;;2.97;;
15312;SDS011;7757;52.626;4.746;2023-06-14T06:28:08;13.40;;;3.22;;
15312;SDS011;7757;52.626;4.746;2023-06-14T06:30:36;11.23;;;2.97;;
15312;SDS011;7757;52.626;4.746;2023-06-14T06:33:02;10.13;;;2.92;;
15312;SDS011;7757;52.626;4.746;2023-06-14T06:35:28;9.85;;;2.80;;
15312;SDS011;7757;52.626;4.746;2023-06-14T06:37:55;10.25;;;3.05;;
15312;SDS011;7757;52.626;4.746;2023-06-14T06:40:20;13.10;;;3.45;;
15312;SDS011;7757;52.626;4.746;2023-06-14T06:42:46;11.43;;;2.92;;
15312;SDS011;7757;52.626;4.746;2023-06-14T06:45:11;12.10;;;3.15;;
15312;SDS011;7757;52.626;4.746;2023-06-14T06:47:36;11.93;;;3.10;;
15312;SDS011;7757;52.626;4.746;2023-06-14T06:50:02;9.65;;;3.13;;
15312;SDS011;7757;52.626;4.746;2023-06-14T06:52:27;10.40;;;3.00;;
15312;SDS011;7757;52.626;4.746;2023-06-14T06:54:54;11.73;;;3.28;;
15312;SDS011;7757;52.626;4.746;2023-06-14T06:57:21;10.27;;;3.10;;
15312;SDS011;7757;52.626;4.746;2023-06-14T06:59:48;10.73;;;3.13;;
15312;SDS011;7757;52.626;4.746;2023-06-14T07:02:13;14.43;;;3.22;;
15312;SDS011;7757;52.626;4.746;2023-06-14T07:04:39;13.30;;;3.25;;
15312;SDS011;7757;52.626;4.746;2023-06-14T07:07:04;10.77;;;3.33;;
15312;SDS011;7757;52.626;4.746;2023-06-14T07:09:29;11.88;;;3.10;;
15312;SDS011;7757;52.626;4.746;2023-06-14T07:11:55;16.13;;;3.40;;
15312;SDS011;7757;52.626;4.746;2023-06-14T07:14:20;12.35;;;3.50;;
15312;SDS011;7757;52.626;4.746;2023-06-14T07:16:48;11.73;;;3.67;;
15312;SDS011;7757;52.626;4.746;2023-06-14T07:19:14;10.70;;;3.10;;
15312;SDS011;7757;52.626;4.746;2023-06-14T07:21:40;12.57;;;3.22;;
15312;SDS011;7757;52.626;4.746;2023-06-14T07:24:05;13.38;;;3.58;;
15312;SDS011;7757;52.626;4.746;2023-06-14T07:26:31;16.38;;;3.47;;
15312;SDS011;7757;52.626;4.746;2023-06-14T07:28:57;14.60;;;3.50;;
15312;SDS011;7757;52.626;4.746;2023-06-14T07:31:22;13.55;;;3.40;;
15312;SDS011;7757;52.626;4.746;2023-06-14T07:33:47;12.80;;;3.40;;
15312;SDS011;7757;52.626;4.746;2023-06-14T07:36:13;10.82;;;3.20;;
15312;SDS011;7757;52.626;4.746;2023-06-14T07:38:38;11.70;;;3.40;;
15312;SDS011;7757;52.626;4.746;2023-06-14T07:41:05;13.05;;;4.15;;
15312;SDS011;7757;52.626;4.746;2023-06-14T07:43:30;11.73;;;3.53;;
15312;SDS011;7757;52.626;4.746;2023-06-14T07:45:56;13.48;;;3.25;;
15312;SDS011;7757;52.626;4.746;2023-06-14T07:48:22;13.05;;;3.50;;
15312;SDS011;7757;52.626;4.746;2023-06-14T07:50:47;11.50;;;3.15;;
15312;SDS011;7757;52.626;4.746;2023-06-14T07:53:13;11.98;;;3.28;;
15312;SDS011;7757;52.626;4.746;2023-06-14T07:55:38;11.05;;;3.22;;
15312;SDS011;7757;52.626;4.746;2023-06-14T07:58:06;13.75;;;3.38;;
15312;SDS011;7757;52.626;4.746;2023-06-14T08:00:32;11.68;;;3.20;;
15312;SDS011;7757;52.626;4.746;2023-06-14T08:02:57;12.50;;;3.45;;
15312;SDS011;7757;52.626;4.746;2023-06-14T08:05:24;11.05;;;3.60;;
15312;SDS011;7757;52.626;4.746;2023-06-14T08:07:54;13.32;;;3.42;;
15312;SDS011;7757;52.626;4.746;2023-06-14T08:10:20;13.25;;;3.42;;
15312;SDS011;7757;52.626;4.746;2023-06-14T08:12:46;13.10;;;3.40;;
15312;SDS011;7757;52.626;4.746;2023-06-14T08:15:11;15.93;;;3.65;;
15312;SDS011;7757;52.626;4.746;2023-06-14T08:17:37;14.77;;;3.75;;
15312;SDS011;7757;52.626;4.746;2023-06-14T08:20:03;12.63;;;3.20;;
15312;SDS011;7757;52.626;4.746;2023-06-14T08:22:30;11.63;;;3.10;;
15312;SDS011;7757;52.626;4.746;2023-06-14T08:24:58;11.43;;;3.70;;
15312;SDS011;7757;52.626;4.746;2023-06-14T08:27:27;10.70;;;3.78;;
15312;SDS011;7757;52.626;4.746;2023-06-14T08:29:52;14.75;;;3.63;;
15312;SDS011;7757;52.626;4.746;2023-06-14T08:32:18;10.70;;;3.50;;
15312;SDS011;7757;52.626;4.746;2023-06-14T08:34:43;12.90;;;3.40;;
15312;SDS011;7757;52.626;4.746;2023-06-14T08:37:09;9.15;;;3.10;;
15312;SDS011;7757;52.626;4.746;2023-06-14T08:39:34;10.90;;;3.35;;
15312;SDS011;7757;52.626;4.746;2023-06-14T08:42:01;11.40;;;3.38;;
15312;SDS011;7757;52.626;4.746;2023-06-14T08:44:27;16.90;;;3.75;;
15312;SDS011;7757;52.626;4.746;2023-06-14T08:46:52;12.45;;;3.28;;
15312;SDS011;7757;52.626;4.746;2023-06-14T08:49:22;10.25;;;2.97;;
15312;SDS011;7757;52.626;4.746;2023-06-14T08:51:50;10.10;;;3.33;;
15312;SDS011;7757;52.626;4.746;2023-06-14T08:54:22;12.13;;;3.53;;
15312;SDS011;7757;52.626;4.746;2023-06-14T08:56:49;12.50;;;3.58;;
15312;SDS011;7757;52.626;4.746;2023-06-14T08:59:16;13.00;;;3.40;;
15312;SDS011;7757;52.626;4.746;2023-06-14T09:01:43;11.80;;;3.10;;
15312;SDS011;7757;52.626;4.746;2023-06-14T09:04:10;10.95;;;2.88;;
15312;SDS011;7757;52.626;4.746;2023-06-14T09:06:36;14.50;;;3.33;;
15312;SDS011;7757;52.626;4.746;2023-06-14T09:09:02;12.13;;;2.88;;
15312;SDS011;7757;52.626;4.746;2023-06-14T09:11:29;12.32;;;3.25;;
15312;SDS011;7757;52.626;4.746;2023-06-14T09:13:55;14.43;;;2.90;;
15312;SDS011;7757;52.626;4.746;2023-06-14T09:16:21;9.40;;;2.83;;
15312;SDS011;7757;52.626;4.746;2023-06-14T09:18:47;10.45;;;3.00;;
15312;SDS011;7757;52.626;4.746;2023-06-14T09:21:13;10.20;;;3.28;;
15312;SDS011;7757;52.626;4.746;2023-06-14T09:23:40;10.82;;;2.97;;
15312;SDS011;7757;52.626;4.746;2023-06-14T09:26:10;11.95;;;3.33;;
15312;SDS011;7757;52.626;4.746;2023-06-14T09:28:42;12.68;;;3.00;;
15312;SDS011;7757;52.626;4.746;2023-06-14T09:31:12;11.02;;;2.92;;
15312;SDS011;7757;52.626;4.746;2023-06-14T09:33:41;9.98;;;2.55;;
15312;SDS011;7757;52.626;4.746;2023-06-14T09:36:12;8.07;;;2.78;;
15312;SDS011;7757;52.626;4.746;2023-06-14T09:38:42;9.45;;;2.58;;
15312;SDS011;7757;52.626;4.746;2023-06-14T09:41:07;12.10;;;2.90;;
15312;SDS011;7757;52.626;4.746;2023-06-14T09:43:36;7.35;;;2.35;;
15312;SDS011;7757;52.626;4.746;2023-06-14T09:46:05;9.48;;;2.55;;
15312;SDS011;7757;52.626;4.746;2023-06-14T09:48:37;10.75;;;2.42;;
15312;SDS011;7757;52.626;4.746;2023-06-14T09:51:04;10.45;;;2.80;;
15312;SDS011;7757;52.626;4.746;2023-06-14T09:53:31;9.27;;;2.28;;
15312;SDS011;7757;52.626;4.746;2023-06-14T09:56:04;11.55;;;2.50;;
15312;SDS011;7757;52.626;4.746;2023-06-14T09:58:33;9.77;;;2.38;;
15312;SDS011;7757;52.626;4.746;2023-06-14T10:01:05;9.48;;;2.85;;
15312;SDS011;7757;52.626;4.746;2023-06-14T10:03:33;11.90;;;2.53;;
15312;SDS011;7757;52.626;4.746;2023-06-14T10:06:02;10.75;;;2.58;;
15312;SDS011;7757;52.626;4.746;2023-06-14T10:08:30;10.43;;;2.90;;
15312;SDS011;7757;52.626;4.746;2023-06-14T10:10:59;17.83;;;2.90;;
15312;SDS011;7757;52.626;4.746;2023-06-14T10:13:25;9.45;;;2.72;;
15312;SDS011;7757;52.626;4.746;2023-06-14T10:16:10;9.98;;;2.50;;
15312;SDS011;7757;52.626;4.746;2023-06-14T10:18:42;9.85;;;2.33;;
15312;SDS011;7757;52.626;4.746;2023-06-14T10:21:37;10.93;;;2.40;;
15312;SDS011;7757;52.626;4.746;2023-06-14T10:24:07;12.88;;;2.63;;
15312;SDS011;7757;52.626;4.746;2023-06-14T10:26:40;9.98;;;2.35;;
15312;SDS011;7757;52.626;4.746;2023-06-14T10:29:19;8.68;;;2.35;;
15312;SDS011;7757;52.626;4.746;2023-06-14T10:31:49;8.88;;;2.35;;
15312;SDS011;7757;52.626;4.746;2023-06-14T10:34:24;9.07;;;2.13;;
15312;SDS011;7757;52.626;4.746;2023-06-14T10:39:29;7.57;;;2.05;;
15312;SDS011;7757;52.626;4.746;2023-06-14T10:41:56;11.23;;;2.40;;
15312;SDS011;7757;52.626;4.746;2023-06-14T10:46:48;9.38;;;2.45;;
15312;SDS011;7757;52.626;4.746;2023-06-14T10:49:18;9.38;;;3.70;;
15312;SDS011;7757;52.626;4.746;2023-06-14T10:51:44;10.00;;;2.40;;
15312;SDS011;7757;52.626;4.746;2023-06-14T10:54:17;8.15;;;2.17;;
15312;SDS011;7757;52.626;4.746;2023-06-14T10:56:48;9.73;;;2.28;;
15312;SDS011;7757;52.626;4.746;2023-06-14T10:59:17;11.27;;;2.65;;
15312;SDS011;7757;52.626;4.746;2023-06-14T11:04:39;11.40;;;2.60;;
15312;SDS011;7757;52.626;4.746;2023-06-14T11:12:48;10.32;;;2.80;;
15312;SDS011;7757;52.626;4.746;2023-06-14T11:15:14;7.90;;;2.30;;
15312;SDS011;7757;52.626;4.746;2023-06-14T11:17:39;8.73;;;2.40;;
15312;SDS011;7757;52.626;4.746;2023-06-14T11:20:16;8.98;;;2.15;;
15312;SDS011;7757;52.626;4.746;2023-06-14T11:22:42;9.00;;;2.50;;
15312;SDS011;7757;52.626;4.746;2023-06-14T11:25:13;9.30;;;2.28;;
15312;SDS011;7757;52.626;4.746;2023-06-14T11:27:41;12.85;;;2.42;;
15312;SDS011;7757;52.626;4.746;2023-06-14T11:30:07;9.80;;;2.30;;
15312;SDS011;7757;52.626;4.746;2023-06-14T11:32:33;9.65;;;2.28;;
15312;SDS011;7757;52.626;4.746;2023-06-14T11:34:58;8.95;;;2.60;;
15312;SDS011;7757;52.626;4.746;2023-06-14T11:37:27;8.90;;;2.42;;
15312;SDS011;7757;52.626;4.746;2023-06-14T11:39:56;10.90;;;2.30;;
15312;SDS011;7757;52.626;4.746;2023-06-14T11:42:22;10.13;;;2.42;;
15312;SDS011;7757;52.626;4.746;2023-06-14T11:44:48;11.65;;;2.47;;
15312;SDS011;7757;52.626;4.746;2023-06-14T11:47:14;8.38;;;2.40;;
15312;SDS011;7757;52.626;4.746;2023-06-14T11:49:40;8.88;;;2.45;;
15312;SDS011;7757;52.626;4.746;2023-06-14T11:52:07;8.77;;;2.35;;
15312;SDS011;7757;52.626;4.746;2023-06-14T11:54:32;10.55;;;2.30;;
15312;SDS011;7757;52.626;4.746;2023-06-14T11:56:58;8.38;;;2.47;;
15312;SDS011;7757;52.626;4.746;2023-06-14T11:59:24;8.68;;;2.30;;
15312;SDS011;7757;52.626;4.746;2023-06-14T12:01:50;11.45;;;2.22;;
15312;SDS011;7757;52.626;4.746;2023-06-14T12:04:28;13.13;;;2.47;;
15312;SDS011;7757;52.626;4.746;2023-06-14T12:06:54;9.13;;;2.20;;
15312;SDS011;7757;52.626;4.746;2023-06-14T12:09:21;10.23;;;2.25;;
15312;SDS011;7757;52.626;4.746;2023-06-14T12:11:51;10.90;;;2.20;;
15312;SDS011;7757;52.626;4.746;2023-06-14T12:14:31;9.23;;;2.40;;
15312;SDS011;7757;52.626;4.746;2023-06-14T12:17:04;8.23;;;2.30;;
15312;SDS011;7757;52.626;4.746;2023-06-14T12:19:33;8.18;;;2.20;;
15312;SDS011;7757;52.626;4.746;2023-06-14T12:22:07;10.93;;;2.45;;
15312;SDS011;7757;52.626;4.746;2023-06-14T12:24:34;7.75;;;2.20;;
15312;SDS011;7757;52.626;4.746;2023-06-14T12:27:00;12.68;;;2.85;;
15312;SDS011;7757;52.626;4.746;2023-06-14T12:29:27;8.23;;;2.10;;
15312;SDS011;7757;52.626;4.746;2023-06-14T12:31:53;8.13;;;2.17;;
15312;SDS011;7757;52.626;4.746;2023-06-14T12:34:19;8.90;;;2.20;;
15312;SDS011;7757;52.626;4.746;2023-06-14T12:36:45;8.52;;;2.22;;
15312;SDS011;7757;52.626;4.746;2023-06-14T12:39:11;7.40;;;2.28;;
15312;SDS011;7757;52.626;4.746;2023-06-14T12:41:37;12.50;;;2.40;;
15312;SDS011;7757;52.626;4.746;2023-06-14T12:44:03;12.52;;;2.47;;
15312;SDS011;7757;52.626;4.746;2023-06-14T12:46:31;8.63;;;2.30;;
15312;SDS011;7757;52.626;4.746;2023-06-14T12:48:57;8.77;;;2.30;;
15312;SDS011;7757;52.626;4.746;2023-06-14T12:51:22;9.60;;;2.47;;
15312;SDS011;7757;52.626;4.746;2023-06-14T12:53:48;10.57;;;2.33;;
15312;SDS011;7757;52.626;4.746;2023-06-14T12:56:14;8.95;;;2.30;;
15312;SDS011;7757;52.626;4.746;2023-06-14T12:58:40;9.27;;;2.28;;
15312;SDS011;7757;52.626;4.746;2023-06-14T13:01:06;11.77;;;2.28;;
15312;SDS011;7757;52.626;4.746;2023-06-14T13:03:32;15.23;;;3.00;;
15312;SDS011;7757;52.626;4.746;2023-06-14T13:05:58;10.75;;;2.33;;
15312;SDS011;7757;52.626;4.746;2023-06-14T13:08:24;9.98;;;2.50;;
15312;SDS011;7757;52.626;4.746;2023-06-14T13:10:52;10.02;;;2.38;;
15312;SDS011;7757;52.626;4.746;2023-06-14T13:13:17;7.93;;;2.40;;
15312;SDS011;7757;52.626;4.746;2023-06-14T13:15:43;8.48;;;2.30;;
15312;SDS011;7757;52.626;4.746;2023-06-14T13:18:09;12.10;;;2.40;;
15312;SDS011;7757;52.626;4.746;2023-06-14T13:20:34;8.25;;;2.20;;
15312;SDS011;7757;52.626;4.746;2023-06-14T13:22:59;7.70;;;2.10;;
15312;SDS011;7757;52.626;4.746;2023-06-14T13:25:27;10.32;;;3.05;;
15312;SDS011;7757;52.626;4.746;2023-06-14T13:27:52;11.45;;;2.13;;
15312;SDS011;7757;52.626;4.746;2023-06-14T13:30:17;10.00;;;2.25;;
15312;SDS011;7757;52.626;4.746;2023-06-14T13:32:43;11.57;;;2.30;;
15312;SDS011;7757;52.626;4.746;2023-06-14T13:35:08;9.40;;;2.30;;
15312;SDS011;7757;52.626;4.746;2023-06-14T13:37:33;6.70;;;2.00;;
15312;SDS011;7757;52.626;4.746;2023-06-14T13:39:59;10.57;;;2.22;;
15312;SDS011;7757;52.626;4.746;2023-06-14T13:42:24;8.73;;;2.05;;
15312;SDS011;7757;52.626;4.746;2023-06-14T13:44:50;10.57;;;2.20;;
15312;SDS011;7757;52.626;4.746;2023-06-14T13:47:16;8.25;;;2.35;;
15312;SDS011;7757;52.626;4.746;2023-06-14T13:49:42;9.85;;;2.15;;
15312;SDS011;7757;52.626;4.746;2023-06-14T13:52:07;8.10;;;2.10;;
15312;SDS011;7757;52.626;4.746;2023-06-14T13:54:33;8.63;;;2.17;;
15312;SDS011;7757;52.626;4.746;2023-06-14T13:56:58;9.65;;;2.13;;
15312;SDS011;7757;52.626;4.746;2023-06-14T13:59:24;11.27;;;2.05;;
15312;SDS011;7757;52.626;4.746;2023-06-14T14:01:49;6.93;;;1.90;;
15312;SDS011;7757;52.626;4.746;2023-06-14T14:04:15;8.82;;;2.03;;
15312;SDS011;7757;52.626;4.746;2023-06-14T14:06:40;8.02;;;1.88;;
15312;SDS011;7757;52.626;4.746;2023-06-14T14:09:06;9.43;;;2.30;;
15312;SDS011;7757;52.626;4.746;2023-06-14T14:11:32;7.20;;;2.08;;
15312;SDS011;7757;52.626;4.746;2023-06-14T14:13:58;9.77;;;2.00;;
15312;SDS011;7757;52.626;4.746;2023-06-14T14:16:24;9.07;;;2.03;;
15312;SDS011;7757;52.626;4.746;2023-06-14T14:18:49;15.18;;;2.35;;
15312;SDS011;7757;52.626;4.746;2023-06-14T14:21:14;8.70;;;2.50;;
15312;SDS011;7757;52.626;4.746;2023-06-14T14:23:40;7.93;;;2.00;;
15312;SDS011;7757;52.626;4.746;2023-06-14T14:26:05;8.70;;;1.92;;
15312;SDS011;7757;52.626;4.746;2023-06-14T14:28:31;11.18;;;2.08;;
15312;SDS011;7757;52.626;4.746;2023-06-14T14:30:58;10.82;;;2.10;;
15312;SDS011;7757;52.626;4.746;2023-06-14T14:33:24;8.35;;;2.42;;
15312;SDS011;7757;52.626;4.746;2023-06-14T14:35:49;6.93;;;2.20;;
15312;SDS011;7757;52.626;4.746;2023-06-14T14:38:15;9.10;;;2.08;;
15312;SDS011;7757;52.626;4.746;2023-06-14T14:40:41;9.80;;;1.98;;
15312;SDS011;7757;52.626;4.746;2023-06-14T14:43:07;12.32;;;2.22;;
15312;SDS011;7757;52.626;4.746;2023-06-14T14:45:33;18.40;;;2.45;;
15312;SDS011;7757;52.626;4.746;2023-06-14T14:48:00;11.05;;;2.30;;
15312;SDS011;7757;52.626;4.746;2023-06-14T14:50:26;8.10;;;1.90;;
15312;SDS011;7757;52.626;4.746;2023-06-14T14:52:51;10.05;;;2.22;;
15312;SDS011;7757;52.626;4.746;2023-06-14T14:55:17;14.45;;;2.60;;
15312;SDS011;7757;52.626;4.746;2023-06-14T14:57:43;13.20;;;2.20;;
15312;SDS011;7757;52.626;4.746;2023-06-14T15:00:08;10.05;;;2.28;;
15312;SDS011;7757;52.626;4.746;2023-06-14T15:02:34;10.88;;;2.45;;
15312;SDS011;7757;52.626;4.746;2023-06-14T15:05:00;10.35;;;2.40;;
15312;SDS011;7757;52.626;4.746;2023-06-14T15:07:27;8.77;;;2.22;;